createdAt,value
2018-03-25T00:01:24.884Z,26.60
2018-03-25T00:03:52.484Z,26.53
2018-03-25T00:06:20.079Z,25.10
2018-03-25T00:08:47.710Z,24.87
2018-03-25T00:11:17.157Z,26.57
2018-03-25T00:13:44.732Z,24.90
2018-03-25T00:16:12.427Z,27.43
2018-03-25T00:18:40.017Z,23.87
2018-03-25T00:21:07.610Z,26.87
2018-03-25T00:23:38.485Z,23.63
2018-03-25T00:26:06.066Z,25.73
2018-03-25T00:28:33.658Z,34.33
2018-03-25T00:31:02.236Z,28.47
2018-03-25T00:33:29.890Z,26.47
2018-03-25T00:35:57.455Z,23.97
2018-03-25T00:38:25.478Z,22.40
2018-03-25T00:40:53.117Z,28.33
2018-03-25T00:43:20.684Z,23.63
2018-03-25T00:45:48.566Z,27.97
2018-03-25T00:48:16.645Z,23.27
2018-03-25T00:50:44.226Z,25.13
2018-03-25T00:53:12.739Z,24.70
2018-03-25T00:55:40.306Z,23.53
2018-03-25T00:58:07.887Z,22.77
2018-03-25T01:00:35.871Z,20.53
2018-03-25T01:03:03.469Z,23.47
2018-03-25T01:05:31.049Z,23.33
2018-03-25T01:07:58.667Z,22.90
2018-03-25T01:10:27.048Z,18.43
2018-03-25T01:12:54.718Z,19.27
2018-03-25T01:15:22.395Z,22.50
2018-03-25T01:17:49.977Z,21.47
2018-03-25T01:20:17.601Z,25.07
2018-03-25T01:22:45.521Z,20.73
2018-03-25T01:25:13.136Z,26.20
2018-03-25T01:27:40.723Z,21.33
2018-03-25T01:30:08.478Z,21.13
2018-03-25T01:32:36.250Z,23.07
2018-03-25T01:35:03.857Z,21.93
2018-03-25T01:37:31.811Z,21.93
2018-03-25T01:39:59.401Z,18.87
2018-03-25T01:42:26.978Z,18.70
2018-03-25T01:44:54.582Z,20.23
2018-03-25T01:47:22.226Z,20.73
2018-03-25T01:49:50.396Z,19.30
2018-03-25T01:52:18.034Z,20.00
2018-03-25T01:54:45.629Z,18.30
2018-03-25T01:57:13.224Z,19.63
2018-03-25T01:59:41.048Z,21.73
2018-03-25T02:02:08.739Z,21.23
2018-03-25T02:04:36.312Z,20.67
2018-03-25T02:07:03.954Z,18.20
2018-03-25T02:09:31.533Z,19.53
2018-03-25T02:11:59.186Z,19.90
2018-03-25T02:14:26.911Z,20.27
2018-03-25T02:16:54.488Z,16.97
2018-03-25T02:19:22.193Z,16.87
2018-03-25T02:21:50.454Z,16.60
2018-03-25T02:24:18.031Z,18.13
2018-03-25T02:26:45.626Z,17.33
2018-03-25T02:29:13.329Z,16.33
2018-03-25T02:31:40.940Z,16.77
2018-03-25T02:34:08.643Z,15.97
2018-03-25T02:36:36.535Z,17.73
2018-03-25T02:39:04.827Z,16.77
2018-03-25T02:41:32.967Z,15.83
2018-03-25T02:44:00.588Z,15.70
2018-03-25T02:46:28.160Z,13.70
2018-03-25T02:48:55.762Z,16.13
2018-03-25T02:51:23.404Z,12.47
2018-03-25T02:53:51.013Z,15.13
2018-03-25T02:56:18.600Z,15.07
2018-03-25T02:58:46.307Z,16.00
2018-03-25T03:01:13.902Z,13.83
2018-03-25T03:03:41.569Z,15.97
2018-03-25T03:06:09.217Z,13.43
2018-03-25T03:08:36.793Z,16.47
2018-03-25T03:11:04.377Z,15.50
2018-03-25T03:13:32.089Z,19.83
2018-03-25T03:15:59.722Z,16.27
2018-03-25T03:18:27.309Z,16.63
2018-03-25T03:20:55.189Z,14.40
2018-03-25T03:23:22.771Z,13.63
2018-03-25T03:25:50.341Z,16.43
2018-03-25T03:28:17.985Z,17.47
2018-03-25T03:30:45.576Z,16.97
2018-03-25T03:33:13.148Z,18.50
2018-03-25T03:35:41.294Z,16.07
2018-03-25T03:38:08.862Z,15.33
2018-03-25T03:40:36.447Z,15.03
2018-03-25T03:43:04.066Z,14.90
2018-03-25T03:45:31.647Z,16.43
2018-03-25T03:47:59.253Z,17.93
2018-03-25T03:50:26.894Z,14.10
2018-03-25T03:52:54.476Z,15.23
2018-03-25T03:55:23.020Z,15.03
2018-03-25T03:57:50.942Z,16.73
2018-03-25T04:00:18.537Z,15.67
2018-03-25T04:02:46.124Z,18.80
2018-03-25T04:05:13.767Z,17.97
2018-03-25T04:07:41.352Z,16.10
2018-03-25T04:10:08.990Z,15.90
2018-03-25T04:12:36.635Z,15.20
2018-03-25T04:15:04.281Z,17.73
2018-03-25T04:17:31.853Z,18.00
2018-03-25T04:19:59.720Z,16.23
2018-03-25T04:22:28.251Z,19.50
2018-03-25T04:24:56.231Z,15.27
2018-03-25T04:27:23.856Z,17.33
2018-03-25T04:29:51.440Z,16.77
2018-03-25T04:32:19.016Z,17.20
2018-03-25T04:34:46.661Z,16.93
2018-03-25T04:37:14.353Z,15.60
2018-03-25T04:39:42.010Z,15.17
2018-03-25T04:42:09.662Z,15.27
2018-03-25T04:44:37.236Z,15.37
2018-03-25T04:47:04.800Z,12.83
2018-03-25T04:49:32.430Z,13.30
2018-03-25T04:52:00.020Z,13.57
2018-03-25T04:54:27.593Z,14.33
2018-03-25T04:56:55.423Z,14.57
2018-03-25T04:59:25.968Z,18.13
2018-03-25T05:01:53.536Z,14.73
2018-03-25T05:04:22.137Z,16.00
2018-03-25T05:06:49.765Z,17.13
2018-03-25T05:09:17.349Z,17.23
2018-03-25T05:11:45.321Z,16.77
2018-03-25T05:14:12.914Z,18.80
2018-03-25T05:16:40.503Z,18.80
2018-03-25T05:19:08.129Z,16.20
2018-03-25T05:21:35.716Z,17.40
2018-03-25T05:24:03.310Z,17.30
2018-03-25T05:26:30.949Z,20.50
2018-03-25T05:28:58.520Z,22.83
2018-03-25T05:31:26.156Z,22.13
2018-03-25T05:33:54.079Z,21.53
2018-03-25T05:36:21.668Z,25.30
2018-03-25T05:38:49.603Z,27.50
2018-03-25T05:41:17.537Z,37.73
2018-03-25T05:43:45.123Z,37.97
2018-03-25T05:46:12.726Z,42.33
2018-03-25T05:48:40.354Z,50.70
2018-03-25T05:51:07.924Z,49.83
2018-03-25T05:53:35.570Z,50.07
2018-03-25T05:56:04.033Z,42.30
2018-03-25T05:58:31.809Z,32.50
2018-03-25T06:01:00.235Z,31.77
2018-03-25T06:03:27.931Z,28.00
2018-03-25T06:05:55.510Z,24.57
2018-03-25T06:08:23.097Z,23.70
2018-03-25T06:10:50.790Z,23.60
2018-03-25T06:13:18.365Z,17.93
2018-03-25T06:15:45.969Z,16.47
2018-03-25T06:18:13.620Z,17.40
2018-03-25T06:20:41.225Z,16.37
2018-03-25T06:23:08.862Z,19.87
2018-03-25T06:25:36.736Z,18.07
2018-03-25T06:28:04.344Z,18.77
2018-03-25T06:30:31.934Z,17.67
2018-03-25T06:33:00.705Z,19.10
2018-03-25T06:35:28.372Z,18.27
2018-03-25T06:37:55.975Z,14.80
2018-03-25T06:40:23.716Z,17.80
2018-03-25T06:42:51.310Z,18.37
2018-03-25T06:45:18.893Z,15.57
2018-03-25T06:47:47.075Z,16.80
2018-03-25T06:50:14.661Z,16.60
2018-03-25T06:52:43.086Z,18.53
2018-03-25T06:55:10.714Z,21.57
2018-03-25T06:57:38.322Z,20.63
2018-03-25T07:00:05.910Z,18.77
2018-03-25T07:02:33.869Z,28.97
2018-03-25T07:05:01.449Z,59.27
2018-03-25T07:07:29.042Z,63.27
2018-03-25T07:09:56.674Z,62.53
2018-03-25T07:12:24.252Z,22.57
2018-03-25T07:14:53.698Z,23.00
2018-03-25T07:17:21.317Z,18.80
2018-03-25T07:19:48.905Z,19.63
2018-03-25T07:22:16.507Z,19.13
2018-03-25T07:24:44.168Z,27.13
2018-03-25T07:27:11.736Z,21.13
2018-03-25T07:29:39.378Z,19.67
2018-03-25T07:32:07.300Z,23.53
2018-03-25T07:34:34.938Z,18.43
2018-03-25T07:37:02.578Z,22.87
2018-03-25T07:39:30.487Z,22.77
2018-03-25T07:41:58.165Z,21.27
2018-03-25T07:44:25.841Z,17.37
2018-03-25T07:46:53.542Z,17.73
2018-03-25T07:49:21.118Z,18.30
2018-03-25T07:51:48.763Z,18.13
2018-03-25T07:54:16.422Z,15.07
2018-03-25T07:56:44.071Z,17.00
2018-03-25T07:59:11.654Z,18.87
2018-03-25T08:01:39.374Z,18.07
2018-03-25T08:04:06.961Z,17.63
2018-03-25T08:06:34.537Z,16.97
2018-03-25T08:09:03.142Z,15.97
2018-03-25T08:11:31.043Z,20.87
2018-03-25T08:13:58.658Z,20.17
2018-03-25T08:16:26.644Z,17.90
2018-03-25T08:18:55.125Z,17.67
2018-03-25T08:21:22.720Z,18.67
2018-03-25T08:23:51.392Z,17.87
2018-03-25T08:26:18.979Z,19.80
2018-03-25T08:28:46.587Z,15.93
2018-03-25T08:31:14.249Z,17.50
2018-03-25T08:33:41.828Z,16.63
2018-03-25T08:36:09.420Z,16.97
2018-03-25T08:38:37.114Z,20.90
2018-03-25T08:41:04.701Z,16.63
2018-03-25T08:43:32.392Z,16.57
2018-03-25T08:46:00.241Z,19.13
2018-03-25T08:48:27.813Z,14.53
2018-03-25T08:50:55.385Z,13.10
2018-03-25T08:53:23.032Z,15.00
2018-03-25T08:55:50.856Z,17.20
2018-03-25T08:58:18.512Z,33.60
2018-03-25T09:00:46.563Z,20.33
2018-03-25T09:03:14.130Z,18.30
2018-03-25T09:05:41.709Z,15.63
2018-03-25T09:08:09.350Z,17.70
2018-03-25T09:10:36.913Z,16.47
2018-03-25T09:13:04.557Z,18.40
2018-03-25T09:15:32.191Z,13.30
2018-03-25T09:17:59.773Z,16.40
2018-03-25T09:20:27.366Z,15.83
2018-03-25T09:22:55.480Z,18.50
2018-03-25T09:25:23.082Z,17.30
2018-03-25T09:27:51.640Z,20.80
2018-03-25T09:30:19.280Z,17.47
2018-03-25T09:32:46.876Z,23.13
2018-03-25T09:35:14.460Z,20.83
2018-03-25T09:37:42.182Z,18.33
2018-03-25T09:40:09.748Z,21.03
2018-03-25T09:42:37.359Z,20.33
2018-03-25T09:45:05.556Z,23.33
2018-03-25T09:47:33.166Z,21.57
2018-03-25T09:50:00.751Z,25.73
2018-03-25T09:52:28.453Z,19.20
2018-03-25T09:54:56.055Z,18.73
2018-03-25T09:57:23.624Z,16.97
2018-03-25T09:59:51.269Z,18.77
2018-03-25T10:02:18.851Z,32.00
2018-03-25T10:04:46.503Z,25.10
2018-03-25T10:07:14.418Z,17.07
2018-03-25T10:09:41.988Z,16.17
2018-03-25T10:12:10.603Z,18.10
2018-03-25T10:14:38.341Z,15.43
2018-03-25T10:17:05.939Z,15.77
2018-03-25T10:19:33.527Z,22.80
2018-03-25T10:22:01.166Z,14.47
2018-03-25T10:24:28.746Z,19.80
2018-03-25T10:26:56.334Z,19.47
2018-03-25T10:29:24.234Z,16.33
2018-03-25T10:31:51.797Z,15.87
2018-03-25T10:34:19.462Z,16.77
2018-03-25T10:36:48.070Z,13.97
2018-03-25T10:39:15.715Z,14.30
2018-03-25T10:41:43.309Z,15.60
2018-03-25T10:44:10.952Z,11.63
2018-03-25T10:46:38.592Z,15.83
2018-03-25T10:49:06.172Z,10.87
2018-03-25T10:51:33.846Z,11.40
2018-03-25T10:54:01.443Z,12.97
2018-03-25T10:56:29.142Z,11.30
2018-03-25T10:58:56.776Z,10.73
2018-03-25T11:01:24.395Z,11.30
2018-03-25T11:03:52.002Z,10.47
2018-03-25T11:06:19.628Z,10.57
2018-03-25T11:08:47.259Z,13.70
2018-03-25T11:11:14.861Z,10.97
2018-03-25T11:13:42.838Z,10.50
2018-03-25T11:16:10.404Z,14.43
2018-03-25T11:18:38.020Z,11.73
2018-03-25T11:21:05.657Z,11.93
2018-03-25T11:23:33.236Z,10.83
2018-03-25T11:26:00.835Z,10.00
2018-03-25T11:28:28.470Z,10.47
2018-03-25T11:30:56.077Z,21.07
2018-03-25T11:33:23.640Z,12.17
2018-03-25T11:35:51.553Z,12.43
2018-03-25T11:38:19.153Z,11.37
2018-03-25T11:40:46.752Z,12.67
2018-03-25T11:43:14.369Z,14.07
2018-03-25T11:45:42.895Z,13.60
2018-03-25T11:48:10.546Z,16.53
2018-03-25T11:50:38.182Z,12.33
2018-03-25T11:53:05.766Z,18.50
2018-03-25T11:55:33.410Z,14.43
2018-03-25T11:58:01.057Z,13.80
2018-03-25T12:00:28.662Z,11.53
2018-03-25T12:02:56.247Z,21.73
2018-03-25T12:05:24.185Z,9.83
2018-03-25T12:07:51.781Z,11.07
2018-03-25T12:10:19.379Z,9.77
2018-03-25T12:12:47.007Z,8.03
2018-03-25T12:15:14.584Z,9.47
2018-03-25T12:17:42.156Z,10.10
2018-03-25T12:20:09.793Z,11.97
2018-03-25T12:22:37.398Z,11.50
2018-03-25T12:25:05.073Z,11.00
2018-03-25T12:27:32.679Z,9.27
2018-03-25T12:30:00.259Z,10.40
2018-03-25T12:32:27.860Z,10.53
2018-03-25T12:34:55.484Z,9.67
2018-03-25T12:37:23.066Z,12.37
2018-03-25T12:39:50.632Z,11.37
2018-03-25T12:42:18.257Z,11.60
2018-03-25T12:44:45.903Z,12.43
2018-03-25T12:47:13.521Z,19.07
2018-03-25T12:49:41.692Z,15.70
2018-03-25T12:52:09.268Z,14.10
2018-03-25T12:54:36.836Z,17.20
2018-03-25T12:57:04.714Z,31.33
2018-03-25T12:59:32.300Z,22.03
2018-03-25T13:01:59.926Z,25.97
2018-03-25T13:04:27.557Z,10.07
2018-03-25T13:06:55.121Z,10.17
2018-03-25T13:09:22.703Z,10.37
2018-03-25T13:11:50.335Z,10.40
2018-03-25T13:14:18.005Z,12.20
2018-03-25T13:16:45.584Z,21.53
2018-03-25T13:19:13.234Z,13.23
2018-03-25T13:21:40.829Z,9.37
2018-03-25T13:24:08.497Z,9.57
2018-03-25T13:26:36.122Z,12.33
2018-03-25T13:29:03.814Z,21.93
2018-03-25T13:31:31.430Z,16.03
2018-03-25T13:33:59.077Z,18.50
2018-03-25T13:36:26.660Z,20.77
2018-03-25T13:38:54.251Z,13.10
2018-03-25T13:41:21.892Z,11.43
2018-03-25T13:43:49.471Z,13.73
2018-03-25T13:46:17.115Z,14.07
2018-03-25T13:48:44.758Z,12.93
2018-03-25T13:51:12.578Z,17.37
2018-03-25T13:53:40.217Z,14.63
2018-03-25T13:56:07.869Z,12.57
2018-03-25T13:58:35.484Z,17.97
2018-03-25T14:01:03.081Z,15.80
2018-03-25T14:03:30.709Z,17.80
2018-03-25T14:05:58.314Z,27.73
2018-03-25T14:08:26.073Z,23.73
2018-03-25T14:10:53.785Z,19.97
2018-03-25T14:13:21.389Z,18.90
2018-03-25T14:15:48.977Z,13.83
2018-03-25T14:18:16.619Z,17.33
2018-03-25T14:20:44.258Z,19.10
2018-03-25T14:23:11.866Z,18.00
2018-03-25T14:25:39.537Z,35.40
2018-03-25T14:28:07.206Z,20.57
2018-03-25T14:30:34.818Z,19.30
2018-03-25T14:33:02.675Z,19.33
2018-03-25T14:35:30.254Z,22.63
2018-03-25T14:37:57.914Z,24.57
2018-03-25T14:40:25.573Z,19.40
2018-03-25T14:42:53.261Z,15.53
2018-03-25T14:45:20.854Z,15.33
2018-03-25T14:47:48.503Z,17.57
2018-03-25T14:50:16.160Z,14.63
2018-03-25T14:52:44.668Z,17.23
2018-03-25T14:55:13.092Z,19.57
2018-03-25T14:57:40.737Z,22.87
2018-03-25T15:00:08.416Z,31.77
2018-03-25T15:02:36.323Z,21.40
2018-03-25T15:05:04.061Z,18.37
2018-03-25T15:07:31.712Z,22.90
2018-03-25T15:09:59.374Z,24.37
2018-03-25T15:12:27.019Z,27.37
2018-03-25T15:14:54.630Z,25.27
2018-03-25T15:17:22.327Z,21.40
2018-03-25T15:19:50.123Z,28.53
2018-03-25T15:22:17.941Z,23.60
2018-03-25T15:24:46.099Z,22.77
2018-03-25T15:27:14.021Z,26.10
2018-03-25T15:29:41.853Z,24.90
2018-03-25T15:32:09.801Z,23.67
2018-03-25T15:34:37.690Z,27.00
2018-03-25T15:37:05.632Z,32.03
2018-03-25T15:39:33.644Z,30.13
2018-03-25T15:42:01.555Z,29.00
2018-03-25T15:44:29.431Z,28.73
2018-03-25T15:46:57.351Z,31.80
2018-03-25T15:49:25.232Z,32.07
2018-03-25T15:51:53.123Z,28.23
2018-03-25T15:54:21.117Z,32.87
2018-03-25T15:56:48.983Z,26.70
2018-03-25T15:59:16.877Z,36.73
2018-03-25T16:01:45.019Z,29.53
2018-03-25T16:04:12.902Z,26.70
2018-03-25T16:06:40.800Z,31.43
2018-03-25T16:09:09.014Z,30.10
2018-03-25T16:11:38.074Z,29.10
2018-03-25T16:14:05.981Z,44.07
2018-03-25T16:16:33.906Z,47.60
2018-03-25T16:19:01.778Z,32.87
2018-03-25T16:21:29.671Z,30.07
2018-03-25T16:23:57.635Z,29.27
2018-03-25T16:26:25.541Z,32.90
2018-03-25T16:28:53.454Z,28.87
2018-03-25T16:31:21.410Z,33.53
2018-03-25T16:33:49.332Z,31.83
2018-03-25T16:36:17.317Z,32.60
2018-03-25T16:38:45.303Z,31.40
2018-03-25T16:41:14.124Z,31.27
2018-03-25T16:43:42.100Z,34.63
2018-03-25T16:46:10.290Z,31.67
2018-03-25T16:48:38.200Z,34.17
2018-03-25T16:51:06.151Z,28.20
2018-03-25T16:53:34.163Z,38.93
2018-03-25T16:56:02.156Z,37.63
2018-03-25T16:58:30.110Z,101.73
2018-03-25T17:00:58.047Z,34.90
2018-03-25T17:03:25.952Z,36.70
2018-03-25T17:05:53.859Z,33.60
2018-03-25T17:08:22.074Z,37.07
2018-03-25T17:10:50.026Z,30.97
2018-03-25T17:13:17.971Z,36.27
2018-03-25T17:15:46.890Z,36.23
2018-03-25T17:18:14.846Z,36.53
2018-03-25T17:20:42.776Z,33.50
2018-03-25T17:23:11.013Z,36.70
2018-03-25T17:25:38.919Z,35.97
2018-03-25T17:28:06.827Z,42.13
2018-03-25T17:30:34.785Z,40.00
2018-03-25T17:33:02.672Z,44.50
2018-03-25T17:35:30.576Z,40.57
2018-03-25T17:37:58.601Z,36.00
2018-03-25T17:40:26.608Z,36.73
2018-03-25T17:42:54.505Z,37.90
2018-03-25T17:45:22.464Z,34.50
2018-03-25T17:47:50.364Z,35.50
2018-03-25T17:50:18.310Z,35.83
2018-03-25T17:52:46.267Z,36.97
2018-03-25T17:55:14.181Z,39.30
2018-03-25T17:57:42.412Z,37.60
2018-03-25T18:00:11.030Z,35.67
2018-03-25T18:02:38.945Z,34.43
2018-03-25T18:05:06.909Z,34.90
2018-03-25T18:07:35.084Z,38.33
2018-03-25T18:10:02.992Z,40.97
2018-03-25T18:12:30.964Z,39.33
2018-03-25T18:14:59.188Z,34.53
2018-03-25T18:17:34.100Z,36.43
2018-03-25T18:19:55.081Z,40.80
2018-03-25T18:22:23.038Z,36.03
2018-03-25T18:24:51.020Z,37.50
2018-03-25T18:27:20.056Z,35.53
2018-03-25T18:29:48.621Z,43.07
2018-03-25T18:32:16.597Z,37.17
2018-03-25T18:34:44.580Z,47.93
2018-03-25T18:37:12.543Z,42.27
2018-03-25T18:39:41.312Z,37.93
2018-03-25T18:42:09.289Z,45.57
2018-03-25T18:44:37.220Z,36.73
2018-03-25T18:47:05.145Z,39.03
2018-03-25T18:49:33.082Z,37.27
2018-03-25T18:52:01.052Z,38.03
2018-03-25T18:54:29.979Z,39.67
2018-03-25T18:56:57.942Z,39.20
2018-03-25T18:59:26.231Z,39.23
2018-03-25T19:01:54.193Z,48.87
2018-03-25T19:04:22.129Z,39.40
2018-03-25T19:06:50.196Z,44.93
2018-03-25T19:09:18.116Z,37.83
2018-03-25T19:11:46.909Z,42.93
2018-03-25T19:14:14.987Z,42.37
2018-03-25T19:16:43.506Z,40.40
2018-03-25T19:19:11.579Z,42.63
2018-03-25T19:21:39.560Z,43.20
2018-03-25T19:24:08.387Z,41.33
2018-03-25T19:26:36.282Z,44.33
2018-03-25T19:29:05.191Z,41.67
2018-03-25T19:31:33.476Z,41.53
2018-03-25T19:34:01.392Z,43.73
2018-03-25T19:36:29.676Z,40.43
2018-03-25T19:38:57.652Z,42.47
2018-03-25T19:41:25.622Z,42.20
2018-03-25T19:43:53.903Z,45.03
2018-03-25T19:46:21.802Z,44.73
2018-03-25T19:48:49.772Z,45.23
2018-03-25T19:51:17.759Z,47.20
2018-03-25T19:53:45.721Z,42.40
2018-03-25T19:56:14.410Z,40.83
2018-03-25T19:58:42.431Z,41.90
2018-03-25T20:01:10.548Z,43.87
2018-03-25T20:03:38.507Z,45.43
2018-03-25T20:06:06.476Z,47.90
2018-03-25T20:08:34.677Z,41.83
2018-03-25T20:11:02.570Z,40.57
2018-03-25T20:13:30.872Z,38.93
2018-03-25T20:15:58.762Z,40.77
2018-03-25T20:18:26.659Z,39.73
2018-03-25T20:20:54.655Z,42.70
2018-03-25T20:23:22.551Z,40.97
2018-03-25T20:25:50.540Z,39.70
2018-03-25T20:28:18.502Z,37.03
2018-03-25T20:30:46.779Z,39.23
2018-03-25T20:33:14.674Z,36.27
2018-03-25T20:35:42.612Z,39.90
2018-03-25T20:38:10.519Z,39.17
2018-03-25T20:40:38.406Z,40.67
2018-03-25T20:43:06.878Z,40.87
2018-03-25T20:45:34.767Z,40.77
2018-03-25T20:48:02.742Z,40.47
2018-03-25T20:50:31.218Z,40.00
2018-03-25T20:52:59.110Z,38.97
2018-03-25T20:55:27.062Z,38.70
2018-03-25T20:57:55.049Z,42.70
2018-03-25T21:00:22.934Z,36.80
2018-03-25T21:02:50.941Z,37.77
2018-03-25T21:05:18.982Z,39.80
2018-03-25T21:07:46.891Z,35.67
2018-03-25T21:10:14.782Z,35.67
2018-03-25T21:12:42.993Z,35.60
2018-03-25T21:15:10.911Z,39.27
2018-03-25T21:17:38.760Z,37.87
2018-03-25T21:20:07.031Z,39.33
2018-03-25T21:22:34.877Z,39.30
2018-03-25T21:25:02.749Z,39.60
2018-03-25T21:27:30.705Z,37.33
2018-03-25T21:29:59.185Z,39.97
2018-03-25T21:32:27.023Z,36.63
2018-03-25T21:34:54.927Z,36.43
2018-03-25T21:37:22.777Z,39.03
2018-03-25T21:39:50.697Z,41.77
2018-03-25T21:42:18.626Z,36.60
2018-03-25T21:44:46.534Z,38.00
2018-03-25T21:47:14.353Z,35.07
2018-03-25T21:49:42.527Z,33.90
2018-03-25T21:52:13.256Z,38.07
2018-03-25T21:54:40.899Z,32.47
2018-03-25T21:57:10.726Z,32.97
2018-03-25T21:59:38.309Z,36.53
2018-03-25T22:02:05.951Z,32.37
2018-03-25T22:04:33.932Z,34.60
2018-03-25T22:07:01.514Z,33.13
2018-03-25T22:09:29.109Z,32.50
2018-03-25T22:11:56.785Z,34.40
2018-03-25T22:14:25.320Z,31.07
2018-03-25T22:16:52.932Z,33.40
2018-03-25T22:19:20.561Z,34.77
2018-03-25T22:21:48.142Z,32.23
2018-03-25T22:24:15.746Z,32.00
2018-03-25T22:26:43.583Z,32.27
2018-03-25T22:29:11.152Z,33.70
2018-03-25T22:31:38.808Z,33.93
2018-03-25T22:34:06.555Z,30.77
2018-03-25T22:36:34.257Z,32.90
2018-03-25T22:39:01.850Z,32.40
2018-03-25T22:41:29.760Z,31.33
2018-03-25T22:43:57.348Z,30.53
2018-03-25T22:46:25.001Z,30.20
2018-03-25T22:48:52.702Z,30.37
2018-03-25T22:51:20.280Z,29.30
2018-03-25T22:53:47.860Z,33.23
2018-03-25T22:56:15.716Z,55.63
2018-03-25T22:58:43.310Z,73.63
2018-03-25T23:01:10.945Z,110.63
2018-03-25T23:03:38.840Z,121.37
2018-03-25T23:06:06.751Z,78.30
2018-03-25T23:08:34.344Z,43.70
2018-03-25T23:11:02.860Z,34.90
2018-03-25T23:13:30.445Z,34.57
2018-03-25T23:15:58.008Z,32.93
2018-03-25T23:18:25.662Z,32.47
2018-03-25T23:20:53.232Z,32.17
2018-03-25T23:23:20.832Z,36.07
2018-03-25T23:25:48.491Z,33.67
2018-03-25T23:28:16.239Z,34.53
2018-03-25T23:30:43.929Z,32.90
2018-03-25T23:33:12.526Z,35.20
2018-03-25T23:35:40.115Z,34.83
2018-03-25T23:38:07.710Z,32.73
2018-03-25T23:40:35.547Z,36.93
2018-03-25T23:43:03.886Z,37.20
2018-03-25T23:45:31.538Z,33.70
2018-03-25T23:47:59.514Z,34.80
2018-03-25T23:50:27.092Z,35.87
2018-03-25T23:52:54.687Z,37.67
2018-03-25T23:55:22.326Z,35.10
2018-03-25T23:57:49.936Z,36.13
